createdAt,value
2022-11-13T00:04:02.152Z,48.33
2022-11-13T00:09:07.570Z,49.73
2022-11-13T00:14:12.747Z,49.77
2022-11-13T00:19:18.186Z,48.97
2022-11-13T00:24:23.189Z,49.60
2022-11-13T00:29:28.843Z,49.65
2022-11-13T00:34:47.026Z,51.87
2022-11-13T00:39:40.935Z,53.50
2022-11-13T00:44:46.473Z,52.97
2022-11-13T00:49:51.358Z,50.43
2022-11-13T00:54:56.522Z,53.07
2022-11-13T01:00:01.548Z,52.60
2022-11-13T01:05:07.262Z,50.40
2022-11-13T01:10:13.396Z,50.37
2022-11-13T01:15:18.995Z,49.83
2022-11-13T01:20:26.236Z,48.43
2022-11-13T01:25:33.748Z,48.53
2022-11-13T01:30:40.358Z,49.37
2022-11-13T01:35:46.121Z,52.43
2022-11-13T01:40:50.995Z,53.50
2022-11-13T01:46:05.128Z,46.77
2022-11-13T01:51:21.223Z,47.30
2022-11-13T01:56:26.884Z,48.03
2022-11-13T02:01:32.374Z,48.83
2022-11-13T02:06:43.205Z,46.87
2022-11-13T02:11:48.652Z,50.17
2022-11-13T02:16:57.578Z,49.87
2022-11-13T02:22:22.948Z,51.27
2022-11-13T02:27:49.349Z,51.70
2022-11-13T02:32:56.727Z,84.67
2022-11-13T02:38:04.597Z,66.10
2022-11-13T02:43:10.298Z,48.03
2022-11-13T02:48:15.939Z,47.00
2022-11-13T02:53:22.370Z,48.20
2022-11-13T02:58:27.962Z,46.83
2022-11-13T03:03:57.078Z,48.93
2022-11-13T03:08:41.480Z,50.87
2022-11-13T03:13:46.335Z,51.20
2022-11-13T03:18:51.953Z,50.30
2022-11-13T03:23:57.429Z,51.60
2022-11-13T03:29:02.527Z,52.27
2022-11-13T03:34:09.689Z,51.00
2022-11-13T03:39:15.258Z,48.57
2022-11-13T03:44:21.002Z,50.23
2022-11-13T03:49:26.699Z,45.65
2022-11-13T03:54:31.864Z,49.03
2022-11-13T03:59:36.916Z,47.20
2022-11-13T04:04:41.936Z,46.17
2022-11-13T04:09:47.495Z,46.07
2022-11-13T04:14:52.428Z,45.07
2022-11-13T04:19:57.321Z,45.10
2022-11-13T04:25:02.209Z,42.57
2022-11-13T04:30:09.967Z,43.50
2022-11-13T04:35:15.525Z,40.97
2022-11-13T04:40:21.387Z,43.17
2022-11-13T04:45:29.997Z,42.37
2022-11-13T04:50:35.644Z,44.70
2022-11-13T04:55:41.145Z,43.93
2022-11-13T05:00:46.748Z,45.30
2022-11-13T05:05:51.638Z,42.60
2022-11-13T05:10:57.212Z,43.60
2022-11-13T05:16:04.087Z,43.03
2022-11-13T05:21:10.998Z,43.67
2022-11-13T05:26:16.914Z,42.58
2022-11-13T05:31:22.126Z,43.27
2022-11-13T05:36:27.061Z,41.87
2022-11-13T05:41:33.004Z,41.23
2022-11-13T05:46:38.022Z,40.63
2022-11-13T05:51:43.362Z,42.77
2022-11-13T05:56:50.349Z,40.63
2022-11-13T06:01:55.281Z,39.53
2022-11-13T06:07:00.607Z,39.47
2022-11-13T06:12:05.808Z,40.90
2022-11-13T06:17:11.829Z,42.77
2022-11-13T06:22:17.024Z,42.85
2022-11-13T06:27:22.671Z,43.90
2022-11-13T06:32:27.565Z,50.53
2022-11-13T06:37:34.703Z,50.53
2022-11-13T06:42:39.754Z,45.60
2022-11-13T06:47:44.644Z,49.17
2022-11-13T06:52:50.225Z,42.20
2022-11-13T06:57:56.186Z,40.87
2022-11-13T07:03:01.419Z,39.80
2022-11-13T07:08:06.562Z,40.40
2022-11-13T07:13:12.026Z,39.70
2022-11-13T07:18:21.492Z,43.33
2022-11-13T07:23:25.049Z,43.55
2022-11-13T07:28:30.741Z,55.05
2022-11-13T07:33:36.360Z,54.30
2022-11-13T07:38:43.006Z,53.97
2022-11-13T07:43:48.153Z,57.03
2022-11-13T07:48:53.531Z,56.33
2022-11-13T07:53:58.569Z,58.00
2022-11-13T07:59:03.561Z,53.67
2022-11-13T08:04:08.929Z,52.20
2022-11-13T08:09:15.480Z,50.92
2022-11-13T08:19:25.727Z,49.90
2022-11-13T08:24:30.912Z,50.92
2022-11-13T08:29:37.704Z,54.73
2022-11-13T08:39:47.648Z,59.70
2022-11-13T08:44:53.284Z,64.50
2022-11-13T08:49:58.579Z,64.87
2022-11-13T08:55:04.006Z,60.57
2022-11-13T09:00:11.668Z,60.45
2022-11-13T09:05:17.042Z,55.52
2022-11-13T09:10:22.486Z,63.00
2022-11-13T09:15:27.748Z,60.83
2022-11-13T09:20:35.591Z,65.87
2022-11-13T09:25:41.360Z,64.73
2022-11-13T09:30:46.582Z,65.10
2022-11-13T09:35:51.972Z,60.63
2022-11-13T09:41:00.178Z,62.67
2022-11-13T09:46:08.991Z,64.27
2022-11-13T09:51:26.007Z,65.00
2022-11-13T09:56:42.809Z,55.03
2022-11-13T10:07:14.774Z,58.63
2022-11-13T10:12:21.495Z,61.08
2022-11-13T10:17:56.637Z,56.07
2022-11-13T10:23:04.085Z,57.93
2022-11-13T10:33:31.337Z,55.78
2022-11-13T10:38:44.475Z,57.47
2022-11-13T10:43:55.400Z,56.10
2022-11-13T10:49:22.583Z,57.87
2022-11-13T10:54:33.084Z,58.47
2022-11-13T10:59:43.688Z,57.10
2022-11-13T11:04:50.556Z,57.70
2022-11-13T11:09:55.750Z,59.30
2022-11-13T11:15:07.992Z,59.03
2022-11-13T11:20:48.354Z,58.90
2022-11-13T11:25:59.696Z,58.20
2022-11-13T11:31:11.951Z,58.93
2022-11-13T11:36:38.097Z,63.42
2022-11-13T11:41:49.250Z,60.07
2022-11-13T11:46:54.619Z,60.70
2022-11-13T11:52:03.240Z,61.53
2022-11-13T11:57:28.209Z,61.67
2022-11-13T12:02:39.345Z,60.60
2022-11-13T12:08:05.735Z,60.93
2022-11-13T12:13:16.579Z,61.70
2022-11-13T12:18:27.673Z,61.40
2022-11-13T12:23:42.439Z,58.73
2022-11-13T12:28:50.688Z,57.73
2022-11-13T12:34:14.150Z,58.53
2022-11-13T12:39:23.181Z,59.03
2022-11-13T12:44:30.742Z,61.40
2022-11-13T12:49:37.663Z,61.07
2022-11-13T12:54:42.910Z,61.70
2022-11-13T12:59:54.433Z,60.97
2022-11-13T13:05:26.697Z,59.20
2022-11-13T13:10:52.630Z,59.17
2022-11-13T13:16:07.322Z,61.20
2022-11-13T13:21:17.928Z,61.53
2022-11-13T13:26:28.893Z,63.27
2022-11-13T13:31:55.596Z,61.13
2022-11-13T13:37:03.894Z,61.23
2022-11-13T13:42:31.657Z,61.97
2022-11-13T13:47:43.298Z,64.40
2022-11-13T13:52:55.490Z,62.73
2022-11-13T13:58:00.332Z,61.53
2022-11-13T14:03:04.063Z,62.70
2022-11-13T14:13:18.188Z,63.08
2022-11-13T14:18:23.518Z,62.70
2022-11-13T14:23:34.686Z,63.38
2022-11-13T14:28:53.280Z,64.67
2022-11-13T14:33:56.299Z,63.03
2022-11-13T14:39:01.849Z,65.47
2022-11-13T14:44:08.415Z,46.33
2022-11-13T14:59:44.246Z,62.70
2022-11-13T15:04:49.509Z,62.60
2022-11-13T15:09:57.075Z,61.92
2022-11-13T15:15:03.272Z,59.85
2022-11-13T15:20:10.220Z,60.77
2022-11-13T15:30:21.657Z,67.50
2022-11-13T15:35:27.767Z,62.98
2022-11-13T15:40:33.717Z,62.73
2022-11-13T15:45:43.811Z,58.27
2022-11-13T15:50:46.713Z,57.03
2022-11-13T15:55:52.514Z,58.67
2022-11-13T16:00:58.559Z,57.63
2022-11-13T16:06:04.132Z,57.67
2022-11-13T16:11:13.546Z,58.07
2022-11-13T16:16:25.146Z,58.00
2022-11-13T16:21:31.628Z,57.35
2022-11-13T16:26:36.981Z,56.60
2022-11-13T16:31:42.129Z,55.77
2022-11-13T16:36:47.833Z,56.23
2022-11-13T16:46:57.553Z,58.23
2022-11-13T16:52:02.824Z,57.07
2022-11-13T16:57:09.639Z,56.70
2022-11-13T17:02:16.633Z,60.47
2022-11-13T17:07:22.211Z,68.35
2022-11-13T17:12:27.197Z,63.30
2022-11-13T17:17:33.058Z,66.20
2022-11-13T17:22:38.721Z,66.87
2022-11-13T17:27:45.494Z,64.43
2022-11-13T17:32:50.690Z,63.60
2022-11-13T17:37:56.605Z,128.90
2022-11-13T17:43:02.177Z,99.67
2022-11-13T17:48:07.588Z,86.00
2022-11-13T17:53:14.683Z,93.35
2022-11-13T17:58:20.083Z,71.47
2022-11-13T18:03:25.205Z,64.37
2022-11-13T18:08:30.614Z,67.27
2022-11-13T18:13:36.761Z,69.47
2022-11-13T18:18:42.874Z,68.28
2022-11-13T18:23:47.981Z,96.10
2022-11-13T18:28:53.592Z,99.27
2022-11-13T18:34:04.552Z,85.50
2022-11-13T18:39:16.394Z,69.77
2022-11-13T18:44:19.212Z,70.13
2022-11-13T18:49:25.449Z,68.60
2022-11-13T18:54:30.397Z,81.63
2022-11-13T18:59:35.403Z,78.07
2022-11-13T19:04:41.098Z,80.50
2022-11-13T19:09:47.783Z,79.97
2022-11-13T19:14:53.993Z,75.97
2022-11-13T19:19:59.045Z,77.17
2022-11-13T19:25:04.083Z,111.50
2022-11-13T19:30:09.287Z,71.23
2022-11-13T19:35:14.444Z,73.83
2022-11-13T19:40:22.421Z,135.10
2022-11-13T19:45:29.520Z,97.35
2022-11-13T19:50:35.071Z,72.40
2022-11-13T19:55:41.104Z,79.37
2022-11-13T20:00:46.247Z,75.25
2022-11-13T20:05:53.801Z,76.33
2022-11-13T20:11:04.052Z,73.90
2022-11-13T20:16:11.234Z,76.93
2022-11-13T20:21:17.896Z,71.37
2022-11-13T20:26:23.644Z,75.35
2022-11-13T20:31:29.991Z,72.75
2022-11-13T20:36:35.241Z,82.10
2022-11-13T20:41:40.385Z,65.13
2022-11-13T20:46:46.271Z,87.50
2022-11-13T20:51:55.957Z,59.87
2022-11-13T20:56:59.070Z,54.13
2022-11-13T21:02:04.240Z,57.50
2022-11-13T21:07:09.499Z,55.57
2022-11-13T21:12:14.379Z,55.37
2022-11-13T21:17:20.149Z,51.53
2022-11-13T21:22:25.516Z,56.97
2022-11-13T21:27:30.880Z,55.80
2022-11-13T21:32:37.425Z,52.33
2022-11-13T21:37:42.697Z,54.13
2022-11-13T21:42:47.809Z,50.87
2022-11-13T21:47:53.996Z,51.73
2022-11-13T21:52:59.241Z,54.98
2022-11-13T21:58:04.397Z,54.27
2022-11-13T22:03:09.666Z,50.90
2022-11-13T22:08:15.037Z,52.73
2022-11-13T22:13:21.239Z,52.00
2022-11-13T22:18:27.678Z,49.83
2022-11-13T22:23:34.069Z,56.83
2022-11-13T22:28:40.999Z,52.57
2022-11-13T22:33:50.444Z,54.48
2022-11-13T22:38:54.388Z,47.73
2022-11-13T22:44:06.080Z,46.67
2022-11-13T22:49:13.782Z,47.65
2022-11-13T22:54:18.853Z,42.87
2022-11-13T22:59:24.169Z,48.93
2022-11-13T23:04:29.338Z,50.93
2022-11-13T23:09:34.256Z,46.27
2022-11-13T23:14:40.284Z,42.70
2022-11-13T23:19:47.284Z,44.23
2022-11-13T23:24:52.785Z,44.77
2022-11-13T23:29:58.258Z,45.10
2022-11-13T23:35:03.665Z,46.37
2022-11-13T23:40:09.320Z,46.97
2022-11-13T23:45:14.222Z,48.20
2022-11-13T23:50:19.601Z,47.65
2022-11-13T23:55:24.916Z,48.90
